sensor_id;sensor_type;location;lat;lon;timestamp;P1;durP1;ratioP1;P2;durP2;ratioP2
76729;SDS011;65653;53.106;18.046;2023-07-31T00:01:30;3.10;;;1.70;;
76729;SDS011;65653;53.106;18.046;2023-07-31T00:03:56;2.00;;;1.30;;
76729;SDS011;65653;53.106;18.046;2023-07-31T00:06:23;1.80;;;1.40;;
76729;SDS011;65653;53.106;18.046;2023-07-31T00:08:49;2.00;;;1.50;;
76729;SDS011;65653;53.106;18.046;2023-07-31T00:11:16;3.90;;;1.60;;
76729;SDS011;65653;53.106;18.046;2023-07-31T00:13:42;3.30;;;1.60;;
76729;SDS011;65653;53.106;18.046;2023-07-31T00:16:11;3.00;;;1.50;;
76729;SDS011;65653;53.106;18.046;2023-07-31T00:18:38;2.70;;;1.40;;
76729;SDS011;65653;53.106;18.046;2023-07-31T00:21:04;3.50;;;1.90;;
76729;SDS011;65653;53.106;18.046;2023-07-31T00:23:31;1.70;;;1.50;;
76729;SDS011;65653;53.106;18.046;2023-07-31T00:25:57;2.90;;;1.40;;
76729;SDS011;65653;53.106;18.046;2023-07-31T00:28:23;3.00;;;1.60;;
76729;SDS011;65653;53.106;18.046;2023-07-31T00:30:50;2.80;;;1.70;;
76729;SDS011;65653;53.106;18.046;2023-07-31T00:33:16;3.90;;;1.90;;
76729;SDS011;65653;53.106;18.046;2023-07-31T00:35:43;3.90;;;1.40;;
76729;SDS011;65653;53.106;18.046;2023-07-31T00:38:09;3.80;;;1.40;;
76729;SDS011;65653;53.106;18.046;2023-07-31T00:40:36;3.40;;;1.80;;
76729;SDS011;65653;53.106;18.046;2023-07-31T00:43:03;3.00;;;1.80;;
76729;SDS011;65653;53.106;18.046;2023-07-31T00:45:30;4.40;;;1.50;;
76729;SDS011;65653;53.106;18.046;2023-07-31T00:47:57;3.30;;;1.70;;
76729;SDS011;65653;53.106;18.046;2023-07-31T00:50:24;4.10;;;1.90;;
76729;SDS011;65653;53.106;18.046;2023-07-31T00:52:51;3.20;;;1.70;;
76729;SDS011;65653;53.106;18.046;2023-07-31T00:55:18;2.20;;;1.90;;
76729;SDS011;65653;53.106;18.046;2023-07-31T00:57:45;3.50;;;1.90;;
76729;SDS011;65653;53.106;18.046;2023-07-31T01:00:11;2.50;;;2.10;;
76729;SDS011;65653;53.106;18.046;2023-07-31T01:02:38;7.10;;;2.10;;
76729;SDS011;65653;53.106;18.046;2023-07-31T01:05:05;2.90;;;2.10;;
76729;SDS011;65653;53.106;18.046;2023-07-31T01:07:39;3.80;;;2.40;;
76729;SDS011;65653;53.106;18.046;2023-07-31T01:10:16;3.90;;;2.30;;
76729;SDS011;65653;53.106;18.046;2023-07-31T01:12:48;4.40;;;2.10;;
76729;SDS011;65653;53.106;18.046;2023-07-31T01:15:17;7.20;;;3.70;;
76729;SDS011;65653;53.106;18.046;2023-07-31T01:17:44;3.90;;;2.40;;
76729;SDS011;65653;53.106;18.046;2023-07-31T01:20:18;4.30;;;2.30;;
76729;SDS011;65653;53.106;18.046;2023-07-31T01:26:23;5.80;;;1.90;;
76729;SDS011;65653;53.106;18.046;2023-07-31T01:31:12;3.20;;;1.90;;
76729;SDS011;65653;53.106;18.046;2023-07-31T01:33:50;2.80;;;1.80;;
76729;SDS011;65653;53.106;18.046;2023-07-31T01:36:19;3.00;;;1.80;;
76729;SDS011;65653;53.106;18.046;2023-07-31T01:38:46;3.60;;;2.40;;
76729;SDS011;65653;53.106;18.046;2023-07-31T01:41:13;3.80;;;2.10;;
76729;SDS011;65653;53.106;18.046;2023-07-31T01:43:39;4.10;;;2.00;;
76729;SDS011;65653;53.106;18.046;2023-07-31T01:46:06;3.20;;;2.30;;
76729;SDS011;65653;53.106;18.046;2023-07-31T01:48:32;3.20;;;2.20;;
76729;SDS011;65653;53.106;18.046;2023-07-31T01:51:02;3.10;;;2.20;;
76729;SDS011;65653;53.106;18.046;2023-07-31T01:53:30;4.70;;;2.40;;
76729;SDS011;65653;53.106;18.046;2023-07-31T01:55:57;3.30;;;2.00;;
76729;SDS011;65653;53.106;18.046;2023-07-31T01:58:24;5.90;;;2.50;;
76729;SDS011;65653;53.106;18.046;2023-07-31T02:00:50;4.90;;;2.50;;
76729;SDS011;65653;53.106;18.046;2023-07-31T02:03:17;3.60;;;2.30;;
76729;SDS011;65653;53.106;18.046;2023-07-31T02:05:44;4.00;;;2.50;;
76729;SDS011;65653;53.106;18.046;2023-07-31T02:08:15;6.80;;;2.50;;
76729;SDS011;65653;53.106;18.046;2023-07-31T02:10:42;4.50;;;2.20;;
76729;SDS011;65653;53.106;18.046;2023-07-31T02:13:09;4.50;;;2.50;;
76729;SDS011;65653;53.106;18.046;2023-07-31T02:15:36;4.10;;;2.20;;
76729;SDS011;65653;53.106;18.046;2023-07-31T02:18:03;4.40;;;2.60;;
76729;SDS011;65653;53.106;18.046;2023-07-31T02:20:29;4.60;;;2.80;;
76729;SDS011;65653;53.106;18.046;2023-07-31T02:22:56;3.90;;;2.40;;
76729;SDS011;65653;53.106;18.046;2023-07-31T02:25:22;4.60;;;2.70;;
76729;SDS011;65653;53.106;18.046;2023-07-31T02:27:49;5.90;;;2.60;;
76729;SDS011;65653;53.106;18.046;2023-07-31T02:30:16;3.70;;;2.40;;
76729;SDS011;65653;53.106;18.046;2023-07-31T02:32:43;4.20;;;2.20;;
76729;SDS011;65653;53.106;18.046;2023-07-31T02:35:09;4.30;;;2.50;;
76729;SDS011;65653;53.106;18.046;2023-07-31T02:37:36;7.80;;;3.10;;
76729;SDS011;65653;53.106;18.046;2023-07-31T02:40:03;6.00;;;2.60;;
76729;SDS011;65653;53.106;18.046;2023-07-31T02:42:32;6.70;;;3.00;;
76729;SDS011;65653;53.106;18.046;2023-07-31T02:44:59;5.30;;;2.50;;
76729;SDS011;65653;53.106;18.046;2023-07-31T02:47:25;5.30;;;2.80;;
76729;SDS011;65653;53.106;18.046;2023-07-31T02:49:52;4.30;;;2.70;;
76729;SDS011;65653;53.106;18.046;2023-07-31T02:52:18;4.10;;;2.80;;
76729;SDS011;65653;53.106;18.046;2023-07-31T02:54:45;4.10;;;2.60;;
76729;SDS011;65653;53.106;18.046;2023-07-31T02:57:12;5.40;;;2.60;;
76729;SDS011;65653;53.106;18.046;2023-07-31T02:59:39;13.20;;;2.90;;
76729;SDS011;65653;53.106;18.046;2023-07-31T03:02:05;4.20;;;2.80;;
76729;SDS011;65653;53.106;18.046;2023-07-31T03:04:32;8.50;;;2.50;;
76729;SDS011;65653;53.106;18.046;2023-07-31T03:06:59;5.30;;;3.00;;
76729;SDS011;65653;53.106;18.046;2023-07-31T03:09:25;5.60;;;2.60;;
76729;SDS011;65653;53.106;18.046;2023-07-31T03:11:52;7.30;;;3.10;;
76729;SDS011;65653;53.106;18.046;2023-07-31T03:14:18;6.30;;;2.80;;
76729;SDS011;65653;53.106;18.046;2023-07-31T03:16:45;3.10;;;2.60;;
76729;SDS011;65653;53.106;18.046;2023-07-31T03:19:11;3.70;;;2.40;;
76729;SDS011;65653;53.106;18.046;2023-07-31T03:21:38;4.80;;;2.70;;
76729;SDS011;65653;53.106;18.046;2023-07-31T03:24:05;5.00;;;3.10;;
76729;SDS011;65653;53.106;18.046;2023-07-31T03:26:32;4.50;;;2.90;;
76729;SDS011;65653;53.106;18.046;2023-07-31T03:28:58;5.40;;;2.50;;
76729;SDS011;65653;53.106;18.046;2023-07-31T03:31:25;4.50;;;2.60;;
76729;SDS011;65653;53.106;18.046;2023-07-31T03:33:51;3.00;;;1.90;;
76729;SDS011;65653;53.106;18.046;2023-07-31T03:36:18;5.80;;;2.40;;
76729;SDS011;65653;53.106;18.046;2023-07-31T03:38:45;3.50;;;2.30;;
76729;SDS011;65653;53.106;18.046;2023-07-31T03:41:13;5.10;;;2.90;;
76729;SDS011;65653;53.106;18.046;2023-07-31T03:43:39;4.40;;;2.80;;
76729;SDS011;65653;53.106;18.046;2023-07-31T03:46:06;4.40;;;2.60;;
76729;SDS011;65653;53.106;18.046;2023-07-31T03:48:32;3.50;;;1.70;;
76729;SDS011;65653;53.106;18.046;2023-07-31T03:50:59;5.50;;;2.50;;
76729;SDS011;65653;53.106;18.046;2023-07-31T03:53:25;4.70;;;2.30;;
76729;SDS011;65653;53.106;18.046;2023-07-31T03:55:52;3.50;;;1.90;;
76729;SDS011;65653;53.106;18.046;2023-07-31T03:58:18;5.50;;;1.90;;
76729;SDS011;65653;53.106;18.046;2023-07-31T04:00:45;5.20;;;2.10;;
76729;SDS011;65653;53.106;18.046;2023-07-31T04:03:12;2.60;;;1.60;;
76729;SDS011;65653;53.106;18.046;2023-07-31T04:05:38;4.80;;;2.10;;
76729;SDS011;65653;53.106;18.046;2023-07-31T04:08:06;3.60;;;1.90;;
76729;SDS011;65653;53.106;18.046;2023-07-31T04:10:32;5.20;;;2.20;;
76729;SDS011;65653;53.106;18.046;2023-07-31T04:13:00;4.40;;;2.10;;
76729;SDS011;65653;53.106;18.046;2023-07-31T04:15:26;3.70;;;2.10;;
76729;SDS011;65653;53.106;18.046;2023-07-31T04:17:53;5.70;;;2.30;;
76729;SDS011;65653;53.106;18.046;2023-07-31T04:20:20;2.50;;;1.80;;
76729;SDS011;65653;53.106;18.046;2023-07-31T04:22:47;3.80;;;2.60;;
76729;SDS011;65653;53.106;18.046;2023-07-31T04:25:13;9.80;;;2.10;;
76729;SDS011;65653;53.106;18.046;2023-07-31T04:27:40;5.70;;;2.10;;
76729;SDS011;65653;53.106;18.046;2023-07-31T04:30:07;4.30;;;2.00;;
76729;SDS011;65653;53.106;18.046;2023-07-31T04:32:34;5.30;;;2.00;;
76729;SDS011;65653;53.106;18.046;2023-07-31T04:35:02;5.10;;;2.20;;
76729;SDS011;65653;53.106;18.046;2023-07-31T04:37:29;5.80;;;2.30;;
76729;SDS011;65653;53.106;18.046;2023-07-31T04:39:56;4.60;;;1.90;;
76729;SDS011;65653;53.106;18.046;2023-07-31T04:42:22;4.80;;;1.90;;
76729;SDS011;65653;53.106;18.046;2023-07-31T04:44:49;6.70;;;2.30;;
76729;SDS011;65653;53.106;18.046;2023-07-31T04:47:16;5.00;;;2.30;;
76729;SDS011;65653;53.106;18.046;2023-07-31T04:49:43;4.00;;;1.90;;
76729;SDS011;65653;53.106;18.046;2023-07-31T04:52:09;5.70;;;2.10;;
76729;SDS011;65653;53.106;18.046;2023-07-31T04:54:36;3.30;;;2.30;;
76729;SDS011;65653;53.106;18.046;2023-07-31T04:57:02;2.80;;;2.10;;
76729;SDS011;65653;53.106;18.046;2023-07-31T04:59:29;4.70;;;1.90;;
76729;SDS011;65653;53.106;18.046;2023-07-31T05:01:55;3.90;;;1.80;;
76729;SDS011;65653;53.106;18.046;2023-07-31T05:04:22;3.40;;;1.80;;
76729;SDS011;65653;53.106;18.046;2023-07-31T05:06:48;2.80;;;1.40;;
76729;SDS011;65653;53.106;18.046;2023-07-31T05:09:15;5.30;;;2.40;;
76729;SDS011;65653;53.106;18.046;2023-07-31T05:11:41;7.90;;;1.90;;
76729;SDS011;65653;53.106;18.046;2023-07-31T05:14:10;3.00;;;1.80;;
76729;SDS011;65653;53.106;18.046;2023-07-31T05:16:37;6.20;;;2.00;;
76729;SDS011;65653;53.106;18.046;2023-07-31T05:19:04;4.00;;;2.00;;
76729;SDS011;65653;53.106;18.046;2023-07-31T05:21:30;2.70;;;1.50;;
76729;SDS011;65653;53.106;18.046;2023-07-31T05:23:57;3.60;;;1.70;;
76729;SDS011;65653;53.106;18.046;2023-07-31T05:26:24;2.50;;;1.70;;
76729;SDS011;65653;53.106;18.046;2023-07-31T05:28:51;4.50;;;1.70;;
76729;SDS011;65653;53.106;18.046;2023-07-31T05:31:18;3.80;;;1.70;;
76729;SDS011;65653;53.106;18.046;2023-07-31T05:33:44;2.90;;;1.80;;
76729;SDS011;65653;53.106;18.046;2023-07-31T05:36:11;4.50;;;1.70;;
76729;SDS011;65653;53.106;18.046;2023-07-31T05:38:38;3.80;;;1.60;;
76729;SDS011;65653;53.106;18.046;2023-07-31T05:41:04;4.70;;;1.60;;
76729;SDS011;65653;53.106;18.046;2023-07-31T05:43:31;4.00;;;1.50;;
76729;SDS011;65653;53.106;18.046;2023-07-31T05:45:57;3.00;;;1.50;;
76729;SDS011;65653;53.106;18.046;2023-07-31T05:48:23;3.70;;;1.40;;
76729;SDS011;65653;53.106;18.046;2023-07-31T05:50:50;4.70;;;1.80;;
76729;SDS011;65653;53.106;18.046;2023-07-31T05:53:17;3.50;;;1.60;;
76729;SDS011;65653;53.106;18.046;2023-07-31T05:55:44;2.10;;;1.60;;
76729;SDS011;65653;53.106;18.046;2023-07-31T05:58:10;2.10;;;1.60;;
76729;SDS011;65653;53.106;18.046;2023-07-31T06:00:37;3.30;;;1.60;;
76729;SDS011;65653;53.106;18.046;2023-07-31T06:03:03;3.00;;;1.60;;
76729;SDS011;65653;53.106;18.046;2023-07-31T06:05:31;2.70;;;1.50;;
76729;SDS011;65653;53.106;18.046;2023-07-31T06:07:58;1.80;;;1.30;;
76729;SDS011;65653;53.106;18.046;2023-07-31T06:10:24;4.20;;;1.30;;
76729;SDS011;65653;53.106;18.046;2023-07-31T06:12:51;2.90;;;1.90;;
76729;SDS011;65653;53.106;18.046;2023-07-31T06:15:19;2.00;;;1.50;;
76729;SDS011;65653;53.106;18.046;2023-07-31T06:17:46;1.10;;;1.00;;
76729;SDS011;65653;53.106;18.046;2023-07-31T06:20:12;2.10;;;1.20;;
76729;SDS011;65653;53.106;18.046;2023-07-31T06:22:39;2.40;;;1.20;;
76729;SDS011;65653;53.106;18.046;2023-07-31T06:25:07;1.60;;;1.10;;
76729;SDS011;65653;53.106;18.046;2023-07-31T06:27:33;3.60;;;1.40;;
76729;SDS011;65653;53.106;18.046;2023-07-31T06:30:00;2.90;;;1.30;;
76729;SDS011;65653;53.106;18.046;2023-07-31T06:32:26;2.90;;;1.60;;
76729;SDS011;65653;53.106;18.046;2023-07-31T06:34:53;3.90;;;1.60;;
76729;SDS011;65653;53.106;18.046;2023-07-31T06:37:20;2.90;;;1.50;;
76729;SDS011;65653;53.106;18.046;2023-07-31T06:39:46;2.20;;;0.90;;
76729;SDS011;65653;53.106;18.046;2023-07-31T06:42:13;1.70;;;1.00;;
76729;SDS011;65653;53.106;18.046;2023-07-31T06:44:39;2.50;;;1.30;;
76729;SDS011;65653;53.106;18.046;2023-07-31T06:47:06;1.70;;;1.00;;
76729;SDS011;65653;53.106;18.046;2023-07-31T06:49:32;2.30;;;1.00;;
76729;SDS011;65653;53.106;18.046;2023-07-31T06:51:58;2.40;;;1.10;;
76729;SDS011;65653;53.106;18.046;2023-07-31T06:54:25;2.50;;;0.90;;
76729;SDS011;65653;53.106;18.046;2023-07-31T06:56:51;2.30;;;1.00;;
76729;SDS011;65653;53.106;18.046;2023-07-31T06:59:18;2.60;;;1.00;;
76729;SDS011;65653;53.106;18.046;2023-07-31T07:01:44;4.30;;;1.30;;
76729;SDS011;65653;53.106;18.046;2023-07-31T07:04:11;3.50;;;1.30;;
76729;SDS011;65653;53.106;18.046;2023-07-31T07:06:37;3.70;;;1.00;;
76729;SDS011;65653;53.106;18.046;2023-07-31T07:09:04;2.60;;;1.40;;
76729;SDS011;65653;53.106;18.046;2023-07-31T07:11:31;2.20;;;1.30;;
76729;SDS011;65653;53.106;18.046;2023-07-31T07:13:57;2.10;;;1.10;;
76729;SDS011;65653;53.106;18.046;2023-07-31T07:16:24;3.80;;;1.10;;
76729;SDS011;65653;53.106;18.046;2023-07-31T07:18:50;2.50;;;1.20;;
76729;SDS011;65653;53.106;18.046;2023-07-31T07:21:17;3.00;;;1.40;;
76729;SDS011;65653;53.106;18.046;2023-07-31T07:23:44;4.70;;;1.50;;
76729;SDS011;65653;53.106;18.046;2023-07-31T07:26:10;2.30;;;1.30;;
76729;SDS011;65653;53.106;18.046;2023-07-31T07:28:37;2.40;;;1.20;;
76729;SDS011;65653;53.106;18.046;2023-07-31T07:31:03;2.20;;;1.00;;
76729;SDS011;65653;53.106;18.046;2023-07-31T07:33:29;2.30;;;1.10;;
76729;SDS011;65653;53.106;18.046;2023-07-31T07:35:59;2.80;;;1.20;;
76729;SDS011;65653;53.106;18.046;2023-07-31T07:38:27;1.70;;;0.90;;
76729;SDS011;65653;53.106;18.046;2023-07-31T07:40:53;2.00;;;1.00;;
76729;SDS011;65653;53.106;18.046;2023-07-31T07:43:20;4.40;;;1.40;;
76729;SDS011;65653;53.106;18.046;2023-07-31T07:45:46;5.50;;;1.10;;
76729;SDS011;65653;53.106;18.046;2023-07-31T07:48:13;1.80;;;1.00;;
76729;SDS011;65653;53.106;18.046;2023-07-31T07:50:39;2.40;;;1.10;;
76729;SDS011;65653;53.106;18.046;2023-07-31T07:53:06;3.80;;;1.00;;
76729;SDS011;65653;53.106;18.046;2023-07-31T07:55:32;1.80;;;0.90;;
76729;SDS011;65653;53.106;18.046;2023-07-31T07:57:59;4.60;;;1.40;;
76729;SDS011;65653;53.106;18.046;2023-07-31T08:00:25;3.70;;;1.00;;
76729;SDS011;65653;53.106;18.046;2023-07-31T08:02:52;5.30;;;0.90;;
76729;SDS011;65653;53.106;18.046;2023-07-31T08:05:19;2.30;;;0.80;;
76729;SDS011;65653;53.106;18.046;2023-07-31T08:07:46;3.00;;;0.90;;
76729;SDS011;65653;53.106;18.046;2023-07-31T08:10:13;2.10;;;0.80;;
76729;SDS011;65653;53.106;18.046;2023-07-31T08:12:39;3.50;;;1.10;;
76729;SDS011;65653;53.106;18.046;2023-07-31T08:15:06;2.90;;;0.80;;
76729;SDS011;65653;53.106;18.046;2023-07-31T08:17:33;1.80;;;0.80;;
76729;SDS011;65653;53.106;18.046;2023-07-31T08:20:00;6.10;;;1.20;;
76729;SDS011;65653;53.106;18.046;2023-07-31T08:22:26;4.30;;;1.10;;
76729;SDS011;65653;53.106;18.046;2023-07-31T08:24:53;2.30;;;0.80;;
76729;SDS011;65653;53.106;18.046;2023-07-31T08:27:20;2.30;;;1.00;;
76729;SDS011;65653;53.106;18.046;2023-07-31T08:29:46;2.40;;;0.80;;
76729;SDS011;65653;53.106;18.046;2023-07-31T08:32:13;3.90;;;0.90;;
76729;SDS011;65653;53.106;18.046;2023-07-31T08:34:39;2.90;;;1.00;;
76729;SDS011;65653;53.106;18.046;2023-07-31T08:37:05;1.10;;;0.70;;
76729;SDS011;65653;53.106;18.046;2023-07-31T08:39:32;1.90;;;0.80;;
76729;SDS011;65653;53.106;18.046;2023-07-31T08:41:59;3.80;;;1.00;;
76729;SDS011;65653;53.106;18.046;2023-07-31T08:44:26;1.90;;;0.80;;
76729;SDS011;65653;53.106;18.046;2023-07-31T08:46:53;1.70;;;0.80;;
76729;SDS011;65653;53.106;18.046;2023-07-31T08:49:21;4.30;;;0.80;;
76729;SDS011;65653;53.106;18.046;2023-07-31T08:51:49;2.20;;;1.00;;
76729;SDS011;65653;53.106;18.046;2023-07-31T08:54:16;1.80;;;0.80;;
76729;SDS011;65653;53.106;18.046;2023-07-31T08:56:43;2.40;;;0.80;;
76729;SDS011;65653;53.106;18.046;2023-07-31T08:59:10;3.70;;;0.90;;
76729;SDS011;65653;53.106;18.046;2023-07-31T09:01:39;2.40;;;1.00;;
76729;SDS011;65653;53.106;18.046;2023-07-31T09:04:10;2.30;;;1.00;;
76729;SDS011;65653;53.106;18.046;2023-07-31T09:06:39;2.10;;;1.10;;
76729;SDS011;65653;53.106;18.046;2023-07-31T09:09:06;2.20;;;1.10;;
76729;SDS011;65653;53.106;18.046;2023-07-31T09:11:33;3.20;;;1.30;;
76729;SDS011;65653;53.106;18.046;2023-07-31T09:13:59;2.20;;;1.10;;
76729;SDS011;65653;53.106;18.046;2023-07-31T09:16:28;2.50;;;1.20;;
76729;SDS011;65653;53.106;18.046;2023-07-31T09:18:58;1.70;;;1.10;;
76729;SDS011;65653;53.106;18.046;2023-07-31T09:21:28;3.80;;;1.10;;
76729;SDS011;65653;53.106;18.046;2023-07-31T09:23:54;2.90;;;1.10;;
76729;SDS011;65653;53.106;18.046;2023-07-31T09:26:30;2.60;;;1.10;;
76729;SDS011;65653;53.106;18.046;2023-07-31T09:29:03;2.30;;;1.10;;
76729;SDS011;65653;53.106;18.046;2023-07-31T09:31:41;4.10;;;1.30;;
76729;SDS011;65653;53.106;18.046;2023-07-31T09:34:09;1.60;;;0.90;;
76729;SDS011;65653;53.106;18.046;2023-07-31T09:36:47;1.80;;;1.30;;
76729;SDS011;65653;53.106;18.046;2023-07-31T09:39:17;2.30;;;1.20;;
76729;SDS011;65653;53.106;18.046;2023-07-31T09:41:55;3.00;;;1.20;;
76729;SDS011;65653;53.106;18.046;2023-07-31T09:44:44;3.80;;;1.30;;
76729;SDS011;65653;53.106;18.046;2023-07-31T09:47:22;3.10;;;1.30;;
76729;SDS011;65653;53.106;18.046;2023-07-31T09:49:56;3.30;;;1.00;;
76729;SDS011;65653;53.106;18.046;2023-07-31T09:52:25;1.70;;;1.10;;
76729;SDS011;65653;53.106;18.046;2023-07-31T09:54:56;3.60;;;1.30;;
76729;SDS011;65653;53.106;18.046;2023-07-31T09:57:22;2.50;;;1.30;;
76729;SDS011;65653;53.106;18.046;2023-07-31T09:59:53;4.40;;;1.30;;
76729;SDS011;65653;53.106;18.046;2023-07-31T10:02:21;5.40;;;1.40;;
76729;SDS011;65653;53.106;18.046;2023-07-31T10:05:03;1.70;;;1.20;;
76729;SDS011;65653;53.106;18.046;2023-07-31T10:07:36;4.00;;;1.50;;
76729;SDS011;65653;53.106;18.046;2023-07-31T10:10:08;2.30;;;1.50;;
76729;SDS011;65653;53.106;18.046;2023-07-31T10:12:38;3.70;;;1.70;;
76729;SDS011;65653;53.106;18.046;2023-07-31T10:15:05;3.70;;;1.70;;
76729;SDS011;65653;53.106;18.046;2023-07-31T10:17:33;2.80;;;1.50;;
76729;SDS011;65653;53.106;18.046;2023-07-31T10:20:02;2.00;;;1.20;;
76729;SDS011;65653;53.106;18.046;2023-07-31T10:22:31;3.60;;;1.40;;
76729;SDS011;65653;53.106;18.046;2023-07-31T10:24:59;2.50;;;1.20;;
76729;SDS011;65653;53.106;18.046;2023-07-31T10:27:28;3.70;;;1.20;;
76729;SDS011;65653;53.106;18.046;2023-07-31T10:29:58;3.40;;;1.50;;
76729;SDS011;65653;53.106;18.046;2023-07-31T10:32:25;2.20;;;1.10;;
76729;SDS011;65653;53.106;18.046;2023-07-31T10:34:53;2.20;;;1.50;;
76729;SDS011;65653;53.106;18.046;2023-07-31T10:40:02;2.60;;;1.40;;
76729;SDS011;65653;53.106;18.046;2023-07-31T10:45:03;3.30;;;1.30;;
76729;SDS011;65653;53.106;18.046;2023-07-31T10:48:06;2.80;;;1.30;;
76729;SDS011;65653;53.106;18.046;2023-07-31T10:50:29;2.60;;;1.20;;
76729;SDS011;65653;53.106;18.046;2023-07-31T10:52:59;4.20;;;1.60;;
76729;SDS011;65653;53.106;18.046;2023-07-31T10:55:28;5.70;;;2.10;;
76729;SDS011;65653;53.106;18.046;2023-07-31T10:57:56;4.50;;;1.40;;
76729;SDS011;65653;53.106;18.046;2023-07-31T11:00:28;2.50;;;1.90;;
76729;SDS011;65653;53.106;18.046;2023-07-31T11:03:02;2.50;;;0.90;;
76729;SDS011;65653;53.106;18.046;2023-07-31T11:08:17;3.40;;;1.10;;
76729;SDS011;65653;53.106;18.046;2023-07-31T11:10:45;5.00;;;1.20;;
76729;SDS011;65653;53.106;18.046;2023-07-31T11:13:13;6.30;;;1.00;;
76729;SDS011;65653;53.106;18.046;2023-07-31T11:15:40;3.80;;;1.00;;
76729;SDS011;65653;53.106;18.046;2023-07-31T11:18:06;2.00;;;0.70;;
76729;SDS011;65653;53.106;18.046;2023-07-31T11:20:35;2.70;;;0.90;;
76729;SDS011;65653;53.106;18.046;2023-07-31T11:23:05;2.60;;;1.20;;
76729;SDS011;65653;53.106;18.046;2023-07-31T11:28:06;2.10;;;0.80;;
76729;SDS011;65653;53.106;18.046;2023-07-31T11:30:35;1.90;;;1.10;;
76729;SDS011;65653;53.106;18.046;2023-07-31T11:33:02;3.10;;;1.00;;
76729;SDS011;65653;53.106;18.046;2023-07-31T11:35:34;4.80;;;1.50;;
76729;SDS011;65653;53.106;18.046;2023-07-31T11:38:07;1.80;;;1.10;;
76729;SDS011;65653;53.106;18.046;2023-07-31T11:40:43;4.20;;;1.30;;
76729;SDS011;65653;53.106;18.046;2023-07-31T11:43:10;6.70;;;1.10;;
76729;SDS011;65653;53.106;18.046;2023-07-31T11:45:53;3.10;;;1.10;;
76729;SDS011;65653;53.106;18.046;2023-07-31T11:48:25;3.60;;;1.30;;
76729;SDS011;65653;53.106;18.046;2023-07-31T11:50:54;3.70;;;1.20;;
76729;SDS011;65653;53.106;18.046;2023-07-31T11:53:40;4.00;;;1.20;;
76729;SDS011;65653;53.106;18.046;2023-07-31T11:56:10;3.30;;;1.10;;
76729;SDS011;65653;53.106;18.046;2023-07-31T11:58:39;2.50;;;1.00;;
76729;SDS011;65653;53.106;18.046;2023-07-31T12:01:10;4.00;;;1.20;;
76729;SDS011;65653;53.106;18.046;2023-07-31T12:03:37;2.60;;;1.00;;
76729;SDS011;65653;53.106;18.046;2023-07-31T12:06:06;2.00;;;1.20;;
76729;SDS011;65653;53.106;18.046;2023-07-31T12:08:34;2.40;;;1.30;;
76729;SDS011;65653;53.106;18.046;2023-07-31T12:11:04;2.20;;;1.20;;
76729;SDS011;65653;53.106;18.046;2023-07-31T12:13:33;1.40;;;1.00;;
76729;SDS011;65653;53.106;18.046;2023-07-31T12:16:00;4.30;;;1.30;;
76729;SDS011;65653;53.106;18.046;2023-07-31T12:18:36;1.60;;;1.10;;
76729;SDS011;65653;53.106;18.046;2023-07-31T12:21:05;2.70;;;1.00;;
76729;SDS011;65653;53.106;18.046;2023-07-31T12:23:35;3.00;;;1.10;;
76729;SDS011;65653;53.106;18.046;2023-07-31T12:28:30;2.30;;;1.00;;
76729;SDS011;65653;53.106;18.046;2023-07-31T12:31:01;2.30;;;1.00;;
76729;SDS011;65653;53.106;18.046;2023-07-31T12:33:33;1.20;;;0.90;;
76729;SDS011;65653;53.106;18.046;2023-07-31T12:36:02;1.90;;;1.10;;
76729;SDS011;65653;53.106;18.046;2023-07-31T12:38:30;2.20;;;1.30;;
76729;SDS011;65653;53.106;18.046;2023-07-31T12:40:57;2.60;;;1.00;;
76729;SDS011;65653;53.106;18.046;2023-07-31T12:43:23;2.70;;;1.30;;
76729;SDS011;65653;53.106;18.046;2023-07-31T12:45:53;1.30;;;0.90;;
76729;SDS011;65653;53.106;18.046;2023-07-31T12:48:22;1.40;;;0.90;;
76729;SDS011;65653;53.106;18.046;2023-07-31T12:50:48;1.30;;;0.80;;
76729;SDS011;65653;53.106;18.046;2023-07-31T12:53:15;1.80;;;1.20;;
76729;SDS011;65653;53.106;18.046;2023-07-31T12:55:42;2.00;;;1.00;;
76729;SDS011;65653;53.106;18.046;2023-07-31T12:58:09;2.70;;;1.40;;
76729;SDS011;65653;53.106;18.046;2023-07-31T13:00:35;1.20;;;1.00;;
76729;SDS011;65653;53.106;18.046;2023-07-31T13:03:02;1.40;;;1.30;;
76729;SDS011;65653;53.106;18.046;2023-07-31T13:05:29;2.10;;;1.40;;
76729;SDS011;65653;53.106;18.046;2023-07-31T13:07:56;1.50;;;1.30;;
76729;SDS011;65653;53.106;18.046;2023-07-31T13:10:23;1.50;;;1.30;;
76729;SDS011;65653;53.106;18.046;2023-07-31T13:12:50;3.10;;;1.80;;
76729;SDS011;65653;53.106;18.046;2023-07-31T13:15:16;2.10;;;1.70;;
76729;SDS011;65653;53.106;18.046;2023-07-31T13:17:43;1.60;;;1.20;;
76729;SDS011;65653;53.106;18.046;2023-07-31T13:20:09;2.70;;;1.40;;
76729;SDS011;65653;53.106;18.046;2023-07-31T13:22:36;2.50;;;1.20;;
76729;SDS011;65653;53.106;18.046;2023-07-31T13:25:03;1.80;;;1.50;;
76729;SDS011;65653;53.106;18.046;2023-07-31T13:27:29;3.50;;;1.50;;
76729;SDS011;65653;53.106;18.046;2023-07-31T13:29:56;2.20;;;1.60;;
76729;SDS011;65653;53.106;18.046;2023-07-31T13:32:22;3.80;;;1.70;;
76729;SDS011;65653;53.106;18.046;2023-07-31T13:34:49;3.40;;;1.70;;
76729;SDS011;65653;53.106;18.046;2023-07-31T13:37:16;3.70;;;1.40;;
76729;SDS011;65653;53.106;18.046;2023-07-31T13:39:42;3.20;;;1.60;;
76729;SDS011;65653;53.106;18.046;2023-07-31T13:42:10;1.70;;;1.20;;
76729;SDS011;65653;53.106;18.046;2023-07-31T13:44:39;2.50;;;1.10;;
76729;SDS011;65653;53.106;18.046;2023-07-31T13:47:06;2.70;;;1.20;;
76729;SDS011;65653;53.106;18.046;2023-07-31T13:49:34;2.40;;;1.60;;
76729;SDS011;65653;53.106;18.046;2023-07-31T13:52:02;2.40;;;1.30;;
76729;SDS011;65653;53.106;18.046;2023-07-31T13:54:29;2.60;;;1.20;;
76729;SDS011;65653;53.106;18.046;2023-07-31T13:56:56;1.50;;;1.10;;
76729;SDS011;65653;53.106;18.046;2023-07-31T13:59:22;3.50;;;1.50;;
76729;SDS011;65653;53.106;18.046;2023-07-31T14:01:49;2.40;;;1.20;;
76729;SDS011;65653;53.106;18.046;2023-07-31T14:04:16;1.20;;;1.00;;
76729;SDS011;65653;53.106;18.046;2023-07-31T14:06:44;1.50;;;1.10;;
76729;SDS011;65653;53.106;18.046;2023-07-31T14:09:10;2.00;;;1.40;;
76729;SDS011;65653;53.106;18.046;2023-07-31T14:11:37;2.60;;;1.70;;
76729;SDS011;65653;53.106;18.046;2023-07-31T14:14:03;3.20;;;1.50;;
76729;SDS011;65653;53.106;18.046;2023-07-31T14:16:31;2.50;;;1.80;;
76729;SDS011;65653;53.106;18.046;2023-07-31T14:18:57;2.30;;;1.60;;
76729;SDS011;65653;53.106;18.046;2023-07-31T14:21:25;1.70;;;1.60;;
76729;SDS011;65653;53.106;18.046;2023-07-31T14:23:52;3.10;;;1.70;;
76729;SDS011;65653;53.106;18.046;2023-07-31T14:26:19;3.50;;;2.30;;
76729;SDS011;65653;53.106;18.046;2023-07-31T14:28:46;2.40;;;1.40;;
76729;SDS011;65653;53.106;18.046;2023-07-31T14:31:12;2.70;;;1.40;;
76729;SDS011;65653;53.106;18.046;2023-07-31T14:33:38;1.60;;;1.40;;
76729;SDS011;65653;53.106;18.046;2023-07-31T14:36:05;2.10;;;1.60;;
76729;SDS011;65653;53.106;18.046;2023-07-31T14:38:32;2.10;;;1.40;;
76729;SDS011;65653;53.106;18.046;2023-07-31T14:40:58;2.10;;;1.70;;
76729;SDS011;65653;53.106;18.046;2023-07-31T14:43:25;3.00;;;1.80;;
76729;SDS011;65653;53.106;18.046;2023-07-31T14:45:51;4.20;;;1.60;;
76729;SDS011;65653;53.106;18.046;2023-07-31T14:48:19;3.30;;;1.60;;
76729;SDS011;65653;53.106;18.046;2023-07-31T14:50:46;3.00;;;1.80;;
76729;SDS011;65653;53.106;18.046;2023-07-31T14:53:12;2.80;;;1.60;;
76729;SDS011;65653;53.106;18.046;2023-07-31T14:55:39;1.90;;;1.40;;